createdAt,value
2022-10-24T00:01:32.231Z,13.30
2022-10-24T00:04:35.843Z,13.22
2022-10-24T00:07:37.334Z,13.17
2022-10-24T00:10:41.270Z,13.13
2022-10-24T00:13:44.387Z,13.16
2022-10-24T00:16:46.141Z,13.13
2022-10-24T00:19:47.981Z,13.14
2022-10-24T00:22:49.723Z,13.15
2022-10-24T00:25:51.509Z,13.16
2022-10-24T00:28:54.891Z,13.15
2022-10-24T00:31:56.792Z,13.15
2022-10-24T00:34:58.732Z,13.17
2022-10-24T00:38:00.372Z,13.22
2022-10-24T00:41:02.184Z,13.17
2022-10-24T00:44:16.045Z,13.13
2022-10-24T00:47:19.647Z,13.11
2022-10-24T00:50:21.333Z,13.09
2022-10-24T00:53:24.003Z,13.07
2022-10-24T00:56:27.906Z,13.07
2022-10-24T00:59:31.232Z,13.03
2022-10-24T01:02:33.243Z,13.05
2022-10-24T01:05:37.570Z,13.08
2022-10-24T01:08:42.218Z,13.06
2022-10-24T01:11:51.112Z,13.08
2022-10-24T01:15:01.684Z,13.09
2022-10-24T01:18:08.807Z,13.16
2022-10-24T01:21:15.902Z,13.24
2022-10-24T01:24:33.485Z,13.27
2022-10-24T01:27:44.828Z,13.27
2022-10-24T01:30:50.881Z,13.24
2022-10-24T01:33:55.993Z,13.27
2022-10-24T01:37:01.207Z,13.28
2022-10-24T01:40:06.042Z,13.30
2022-10-24T01:43:10.469Z,13.30
2022-10-24T01:46:16.626Z,13.33
2022-10-24T01:49:19.145Z,13.39
2022-10-24T01:52:21.618Z,13.38
2022-10-24T01:55:23.543Z,13.35
2022-10-24T01:58:25.436Z,13.33
2022-10-24T02:01:28.736Z,13.27
2022-10-24T02:04:32.049Z,13.31
2022-10-24T02:07:34.629Z,13.32
2022-10-24T02:10:39.823Z,13.29
2022-10-24T02:13:45.385Z,13.31
2022-10-24T02:16:51.050Z,13.37
2022-10-24T02:19:53.578Z,13.33
2022-10-24T02:22:59.357Z,13.34
2022-10-24T02:26:03.004Z,13.36
2022-10-24T02:29:07.531Z,13.37
2022-10-24T02:32:13.483Z,13.36
2022-10-24T02:35:17.173Z,13.37
2022-10-24T02:38:22.915Z,13.36
2022-10-24T02:41:26.107Z,13.39
2022-10-24T02:44:29.464Z,13.45
2022-10-24T02:47:33.835Z,13.43
2022-10-24T02:50:36.440Z,13.45
2022-10-24T02:53:39.229Z,13.47
2022-10-24T02:56:44.181Z,13.46
2022-10-24T02:59:45.953Z,13.44
2022-10-24T03:02:49.033Z,13.45
2022-10-24T03:05:50.674Z,13.45
2022-10-24T03:08:52.639Z,13.43
2022-10-24T03:11:54.675Z,13.42
2022-10-24T03:14:56.571Z,13.42
2022-10-24T03:17:59.955Z,13.42
2022-10-24T03:21:01.732Z,13.39
2022-10-24T03:24:04.092Z,13.39
2022-10-24T03:27:06.314Z,13.42
2022-10-24T03:30:08.501Z,13.41
2022-10-24T03:33:11.841Z,13.41
2022-10-24T03:36:13.919Z,13.41
2022-10-24T03:39:15.766Z,13.42
2022-10-24T03:42:17.664Z,13.42
2022-10-24T03:45:19.687Z,13.48
2022-10-24T03:48:23.103Z,13.46
2022-10-24T03:51:24.915Z,13.49
2022-10-24T03:54:26.705Z,13.47
2022-10-24T03:57:28.502Z,13.49
2022-10-24T04:00:30.288Z,13.50
2022-10-24T04:03:33.855Z,13.62
2022-10-24T04:06:36.605Z,13.69
2022-10-24T04:09:38.748Z,13.71
2022-10-24T04:12:40.702Z,13.72
2022-10-24T04:15:42.974Z,13.70
2022-10-24T04:18:46.429Z,13.69
2022-10-24T04:21:48.341Z,13.71
2022-10-24T04:24:50.192Z,13.71
2022-10-24T04:27:51.744Z,13.67
2022-10-24T04:30:56.998Z,13.68
2022-10-24T04:34:00.840Z,13.63
2022-10-24T04:37:03.455Z,13.59
2022-10-24T04:40:05.859Z,13.58
2022-10-24T04:43:07.608Z,13.53
2022-10-24T04:46:09.248Z,13.51
2022-10-24T04:49:12.390Z,13.53
2022-10-24T04:52:14.121Z,13.57
2022-10-24T04:55:15.863Z,13.59
2022-10-24T04:58:17.563Z,13.63
2022-10-24T05:01:19.262Z,13.72
2022-10-24T05:04:22.301Z,13.72
2022-10-24T05:07:24.035Z,13.68
2022-10-24T05:10:28.414Z,13.69
2022-10-24T05:13:32.971Z,13.69
2022-10-24T05:16:40.663Z,13.68
2022-10-24T05:19:43.939Z,13.62
2022-10-24T05:22:45.814Z,13.63
2022-10-24T05:25:48.027Z,13.66
2022-10-24T05:28:52.438Z,13.66
2022-10-24T05:31:54.421Z,13.68
2022-10-24T05:34:57.398Z,13.68
2022-10-24T05:37:58.870Z,13.66
2022-10-24T05:41:00.497Z,13.59
2022-10-24T05:44:02.214Z,13.67
2022-10-24T05:47:03.821Z,13.61
2022-10-24T05:50:07.657Z,13.63
2022-10-24T05:53:09.234Z,13.61
2022-10-24T05:56:12.558Z,13.59
2022-10-24T05:59:14.732Z,13.56
2022-10-24T06:02:18.115Z,13.55
2022-10-24T06:05:21.273Z,13.58
2022-10-24T06:08:23.002Z,13.64
2022-10-24T06:11:24.498Z,13.62
2022-10-24T06:14:27.856Z,13.59
2022-10-24T06:17:29.959Z,13.63
2022-10-24T06:20:32.965Z,13.65
2022-10-24T06:23:34.916Z,13.64
2022-10-24T06:26:36.408Z,13.68
2022-10-24T06:29:37.952Z,13.72
2022-10-24T06:32:43.549Z,13.68
2022-10-24T06:35:47.739Z,13.68
2022-10-24T06:38:49.317Z,13.69
2022-10-24T06:41:50.888Z,13.67
2022-10-24T06:44:52.679Z,13.68
2022-10-24T06:47:54.711Z,13.70
2022-10-24T06:50:57.899Z,13.69
2022-10-24T06:53:59.675Z,13.69
2022-10-24T06:57:01.602Z,13.71
2022-10-24T07:00:09.162Z,13.74
2022-10-24T07:03:13.973Z,13.76
2022-10-24T07:06:18.365Z,13.80
2022-10-24T07:09:20.081Z,13.85
2022-10-24T07:12:22.147Z,13.86
2022-10-24T07:15:23.704Z,13.89
2022-10-24T07:18:25.270Z,13.90
2022-10-24T07:21:29.784Z,13.94
2022-10-24T07:24:31.656Z,13.98
2022-10-24T07:27:33.609Z,14.06
2022-10-24T07:30:35.364Z,14.11
2022-10-24T07:33:37.847Z,14.14
2022-10-24T07:36:43.877Z,14.13
2022-10-24T07:39:46.759Z,14.14
2022-10-24T07:42:48.733Z,14.18
2022-10-24T07:45:52.034Z,14.23
2022-10-24T07:48:56.789Z,14.30
2022-10-24T07:51:59.764Z,14.36
2022-10-24T07:55:01.507Z,14.41
2022-10-24T07:58:03.387Z,14.47
2022-10-24T08:01:06.008Z,14.50
2022-10-24T08:04:07.626Z,14.51
2022-10-24T08:07:13.666Z,14.48
2022-10-24T08:10:15.476Z,14.47
2022-10-24T08:13:17.140Z,14.48
2022-10-24T08:16:21.067Z,14.48
2022-10-24T08:19:22.648Z,14.50
2022-10-24T08:22:25.804Z,14.55
2022-10-24T08:25:27.436Z,14.60
2022-10-24T08:28:28.901Z,14.66
2022-10-24T08:31:30.423Z,14.67
2022-10-24T08:34:32.291Z,14.72
2022-10-24T08:40:48.647Z,14.86
2022-10-24T08:43:50.161Z,14.87
2022-10-24T08:46:55.108Z,14.85
2022-10-24T08:50:01.015Z,14.85
2022-10-24T08:53:06.176Z,14.90
2022-10-24T08:56:10.519Z,14.93
2022-10-24T08:59:12.791Z,14.93
2022-10-24T09:02:17.963Z,14.93
2022-10-24T09:05:22.569Z,14.90
2022-10-24T09:08:30.010Z,14.91
2022-10-24T09:11:37.498Z,14.98
2022-10-24T09:14:40.983Z,15.05
2022-10-24T09:17:43.207Z,15.11
2022-10-24T09:20:45.282Z,15.15
2022-10-24T09:23:50.357Z,15.18
2022-10-24T09:26:53.093Z,15.21
2022-10-24T09:29:55.207Z,15.31
2022-10-24T09:32:58.515Z,15.38
2022-10-24T09:36:01.377Z,15.47
2022-10-24T09:39:23.790Z,15.50
2022-10-24T09:42:25.597Z,15.50
2022-10-24T09:45:33.906Z,15.54
2022-10-24T09:48:39.935Z,15.59
2022-10-24T09:51:42.452Z,15.61
2022-10-24T09:54:46.628Z,15.63
2022-10-24T09:57:48.879Z,15.74
2022-10-24T10:00:58.271Z,15.74
2022-10-24T10:04:06.106Z,15.82
2022-10-24T10:07:14.288Z,15.82
2022-10-24T10:10:31.913Z,15.83
2022-10-24T10:13:45.475Z,15.80
2022-10-24T10:16:58.195Z,15.78
2022-10-24T10:20:00.035Z,15.81
2022-10-24T10:23:16.010Z,15.84
2022-10-24T10:26:21.171Z,15.81
2022-10-24T10:29:23.968Z,15.80
2022-10-24T10:32:28.547Z,15.86
2022-10-24T10:35:37.835Z,15.86
2022-10-24T10:38:57.315Z,15.86
2022-10-24T10:42:02.978Z,15.87
2022-10-24T10:45:13.001Z,15.86
2022-10-24T10:48:23.717Z,15.85
2022-10-24T10:51:30.053Z,15.90
2022-10-24T10:54:48.959Z,15.93
2022-10-24T10:57:54.393Z,15.96
2022-10-24T11:01:00.621Z,15.96
2022-10-24T11:04:06.964Z,15.98
2022-10-24T11:07:13.301Z,16.00
2022-10-24T11:10:17.416Z,16.03
2022-10-24T11:13:26.534Z,16.05
2022-10-24T11:16:29.346Z,16.02
2022-10-24T11:19:34.165Z,16.00
2022-10-24T11:22:38.689Z,15.94
2022-10-24T11:25:42.797Z,15.89
2022-10-24T11:28:50.757Z,15.85
2022-10-24T11:31:55.290Z,15.87
2022-10-24T11:35:00.536Z,15.90
2022-10-24T11:38:03.916Z,15.93
2022-10-24T11:41:18.217Z,15.93
2022-10-24T11:44:33.541Z,15.97
2022-10-24T11:47:50.024Z,16.00
2022-10-24T11:50:54.168Z,15.98
2022-10-24T11:53:57.803Z,16.00
2022-10-24T11:57:01.532Z,15.97
2022-10-24T12:00:05.117Z,15.98
2022-10-24T12:03:31.017Z,15.98
2022-10-24T12:06:47.516Z,15.94
2022-10-24T12:09:56.399Z,15.90
2022-10-24T12:13:08.835Z,15.86
2022-10-24T12:16:18.758Z,15.86
2022-10-24T12:19:24.341Z,15.75
2022-10-24T12:22:28.424Z,15.62
2022-10-24T12:25:32.467Z,15.44
2022-10-24T12:28:34.880Z,15.36
2022-10-24T12:31:38.262Z,15.33
2022-10-24T12:34:49.220Z,15.38
2022-10-24T12:37:51.918Z,15.40
2022-10-24T12:40:55.778Z,15.43
2022-10-24T12:44:12.458Z,15.40
2022-10-24T12:47:35.569Z,15.35
2022-10-24T12:51:01.380Z,15.41
2022-10-24T12:54:04.595Z,15.43
2022-10-24T12:57:23.294Z,15.45
2022-10-24T13:00:29.700Z,15.42
2022-10-24T13:03:42.584Z,15.43
2022-10-24T13:06:52.366Z,15.42
2022-10-24T13:09:59.188Z,15.42
2022-10-24T13:13:24.804Z,15.42
2022-10-24T13:16:33.107Z,15.47
2022-10-24T13:19:36.439Z,15.50
2022-10-24T13:22:38.202Z,15.47
2022-10-24T13:25:40.820Z,15.43
2022-10-24T13:28:43.498Z,15.45
2022-10-24T13:31:47.323Z,15.47
2022-10-24T13:34:55.347Z,15.50
2022-10-24T13:38:01.353Z,15.51
2022-10-24T13:41:05.325Z,15.53
2022-10-24T13:44:10.473Z,15.57
2022-10-24T13:47:15.676Z,15.55
2022-10-24T13:50:21.032Z,15.58
2022-10-24T13:53:29.739Z,15.58
2022-10-24T13:56:36.630Z,15.58
2022-10-24T13:59:38.882Z,15.57
2022-10-24T14:02:43.471Z,15.59
2022-10-24T14:05:48.163Z,15.58
2022-10-24T14:09:00.867Z,15.51
2022-10-24T14:12:05.805Z,15.58
2022-10-24T14:15:19.394Z,15.58
2022-10-24T14:18:21.424Z,15.57
2022-10-24T14:21:24.433Z,15.57
2022-10-24T14:24:26.312Z,15.56
2022-10-24T14:27:28.183Z,15.55
2022-10-24T14:30:34.970Z,15.59
2022-10-24T14:33:42.421Z,15.53
2022-10-24T14:36:45.869Z,15.51
2022-10-24T14:39:47.620Z,15.43
2022-10-24T14:42:49.475Z,15.21
2022-10-24T14:46:06.057Z,14.98
2022-10-24T14:49:20.761Z,14.82
2022-10-24T14:52:25.456Z,14.69
2022-10-24T14:55:27.167Z,14.58
2022-10-24T14:58:30.213Z,14.55
2022-10-24T15:01:31.925Z,14.56
2022-10-24T15:04:38.411Z,14.61
2022-10-24T15:07:52.334Z,14.67
2022-10-24T15:11:17.821Z,14.75
2022-10-24T15:14:34.244Z,14.76
2022-10-24T15:17:38.958Z,14.76
2022-10-24T15:20:40.927Z,14.74
2022-10-24T15:23:47.582Z,14.67
2022-10-24T15:26:49.110Z,14.67
2022-10-24T15:29:50.727Z,14.65
2022-10-24T15:32:52.239Z,14.65
2022-10-24T15:35:53.803Z,14.62
2022-10-24T15:38:58.037Z,14.56
2022-10-24T15:41:59.660Z,14.56
2022-10-24T15:45:01.602Z,14.50
2022-10-24T15:48:03.102Z,14.56
2022-10-24T15:51:04.703Z,14.52
2022-10-24T15:54:07.767Z,14.53
2022-10-24T15:57:10.245Z,14.53
2022-10-24T16:00:12.451Z,14.59
2022-10-24T16:03:16.716Z,14.59
2022-10-24T16:06:20.359Z,14.56
2022-10-24T16:09:25.105Z,14.54
2022-10-24T16:12:26.878Z,14.54
2022-10-24T16:15:30.090Z,14.56
2022-10-24T16:18:31.671Z,14.52
2022-10-24T16:21:33.195Z,14.54
2022-10-24T16:24:36.125Z,14.55
2022-10-24T16:27:37.731Z,14.58
2022-10-24T16:30:40.449Z,14.58
2022-10-24T16:33:42.088Z,14.60
2022-10-24T16:36:43.715Z,14.64
2022-10-24T16:39:46.637Z,14.62
2022-10-24T16:42:48.570Z,14.59
2022-10-24T16:45:56.322Z,14.61
2022-10-24T16:48:57.861Z,14.60
2022-10-24T16:51:59.395Z,14.58
2022-10-24T16:55:03.151Z,14.59
2022-10-24T16:58:04.740Z,14.57
2022-10-24T17:01:07.869Z,14.53
2022-10-24T17:04:09.671Z,14.38
2022-10-24T17:07:12.078Z,14.13
2022-10-24T17:10:19.484Z,13.88
2022-10-24T17:13:24.210Z,13.67
2022-10-24T17:16:25.828Z,13.44
2022-10-24T17:19:27.359Z,13.28
2022-10-24T17:22:31.281Z,13.19
2022-10-24T17:25:34.461Z,13.16
2022-10-24T17:28:35.976Z,13.09
2022-10-24T17:31:37.584Z,13.13
2022-10-24T17:34:40.678Z,13.08
2022-10-24T17:37:46.825Z,13.08
2022-10-24T17:40:50.525Z,13.02
2022-10-24T17:43:52.523Z,13.04
2022-10-24T17:46:57.441Z,13.06
2022-10-24T17:49:59.843Z,13.02
2022-10-24T17:53:01.361Z,12.98
2022-10-24T17:56:04.490Z,13.03
2022-10-24T17:59:06.165Z,13.04
2022-10-24T18:02:11.820Z,13.02
2022-10-24T18:05:13.833Z,12.99
2022-10-24T18:08:16.414Z,12.91
2022-10-24T18:11:19.332Z,12.92
2022-10-24T18:14:20.963Z,12.90
2022-10-24T18:17:22.411Z,12.90
2022-10-24T18:20:23.996Z,12.88
2022-10-24T18:23:25.650Z,12.95
2022-10-24T18:26:29.613Z,13.00
2022-10-24T18:29:31.227Z,12.99
2022-10-24T18:32:32.990Z,13.03
2022-10-24T18:35:35.456Z,13.01
2022-10-24T18:38:37.388Z,12.98
2022-10-24T18:41:46.544Z,12.93
2022-10-24T18:44:50.938Z,12.92
2022-10-24T18:47:53.515Z,12.90
2022-10-24T18:50:55.237Z,12.89
2022-10-24T18:53:57.954Z,12.90
2022-10-24T18:57:01.090Z,12.89
2022-10-24T19:00:03.682Z,12.88
2022-10-24T19:03:12.533Z,12.87
2022-10-24T19:06:18.363Z,12.81
2022-10-24T19:09:21.420Z,12.78
2022-10-24T19:12:24.572Z,12.73
2022-10-24T19:15:26.338Z,12.77
2022-10-24T19:18:28.903Z,12.79
2022-10-24T19:21:30.429Z,12.87
2022-10-24T19:24:33.422Z,12.89
2022-10-24T19:27:36.329Z,12.85
2022-10-24T19:30:40.847Z,12.86
2022-10-24T19:33:42.682Z,12.87
2022-10-24T19:36:44.251Z,12.85
2022-10-24T19:39:45.716Z,12.79
2022-10-24T19:42:49.837Z,12.75
2022-10-24T19:46:07.765Z,12.77
2022-10-24T19:49:16.849Z,12.77
2022-10-24T19:52:18.569Z,12.80
2022-10-24T19:55:20.472Z,12.77
2022-10-24T19:58:23.669Z,12.77
2022-10-24T20:01:26.462Z,12.77
2022-10-24T20:04:28.844Z,12.76
2022-10-24T20:07:31.075Z,12.81
2022-10-24T20:10:32.631Z,12.82
2022-10-24T20:13:38.987Z,12.85
2022-10-24T20:16:43.513Z,12.78
2022-10-24T20:19:45.208Z,12.74
2022-10-24T20:22:46.958Z,12.72
2022-10-24T20:25:48.942Z,12.70
2022-10-24T20:28:52.716Z,12.71
2022-10-24T20:31:54.209Z,12.68
2022-10-24T20:34:56.128Z,12.61
2022-10-24T20:37:57.601Z,12.50
2022-10-24T20:41:00.795Z,12.42
2022-10-24T20:44:04.265Z,12.37
2022-10-24T20:47:05.785Z,12.34
2022-10-24T20:50:08.040Z,12.25
2022-10-24T20:53:09.558Z,12.17
2022-10-24T20:56:12.015Z,12.13
2022-10-24T20:59:15.738Z,12.12
2022-10-24T21:02:17.336Z,12.10
2022-10-24T21:05:19.049Z,12.08
2022-10-24T21:08:20.501Z,12.08
2022-10-24T21:11:27.392Z,12.06
2022-10-24T21:14:30.355Z,12.03
2022-10-24T21:17:31.863Z,11.99
2022-10-24T21:20:33.499Z,11.97
2022-10-24T21:23:35.189Z,11.94
2022-10-24T21:26:38.634Z,11.94
2022-10-24T21:29:41.768Z,11.93
2022-10-24T21:32:43.282Z,11.90
2022-10-24T21:35:44.799Z,11.93
2022-10-24T21:38:50.267Z,11.90
2022-10-24T21:41:53.805Z,11.89
2022-10-24T21:44:56.987Z,11.86
2022-10-24T21:47:58.681Z,11.84
2022-10-24T21:51:04.843Z,11.84
2022-10-24T21:54:07.432Z,11.82
2022-10-24T21:57:09.189Z,11.80
2022-10-24T22:00:13.319Z,11.80
2022-10-24T22:03:14.967Z,11.78
2022-10-24T22:06:18.476Z,11.74
2022-10-24T22:09:21.132Z,11.71
2022-10-24T22:12:29.910Z,11.71
2022-10-24T22:15:37.584Z,11.69
2022-10-24T22:18:39.652Z,11.69
2022-10-24T22:21:42.613Z,11.70
2022-10-24T22:24:44.043Z,11.69
2022-10-24T22:27:45.940Z,11.68
2022-10-24T22:30:49.580Z,11.65
2022-10-24T22:33:51.734Z,11.76
2022-10-24T22:37:02.027Z,11.74
2022-10-24T22:40:05.818Z,11.74
2022-10-24T22:43:09.134Z,11.73
2022-10-24T22:46:22.293Z,11.67
2022-10-24T22:49:27.245Z,11.63
2022-10-24T22:52:29.057Z,11.63
2022-10-24T22:55:33.029Z,11.60
2022-10-24T22:58:34.833Z,11.59
2022-10-24T23:01:46.674Z,11.61
2022-10-24T23:04:54.296Z,11.63
2022-10-24T23:08:00.592Z,11.67
2022-10-24T23:11:02.442Z,11.67
2022-10-24T23:14:04.612Z,11.73
2022-10-24T23:17:07.875Z,11.75
2022-10-24T23:20:17.149Z,11.77
2022-10-24T23:23:28.766Z,11.79
2022-10-24T23:26:35.925Z,11.79
2022-10-24T23:29:39.149Z,11.75
2022-10-24T23:32:42.626Z,11.74
2022-10-24T23:35:44.087Z,11.73
2022-10-24T23:38:45.828Z,11.72
2022-10-24T23:41:47.710Z,11.73
2022-10-24T23:44:49.678Z,11.77
2022-10-24T23:48:01.059Z,11.78
2022-10-24T23:51:06.860Z,11.79
2022-10-24T23:54:09.858Z,11.79
2022-10-24T23:57:14.895Z,11.84
